sensor_id;sensor_type;location;lat;lon;timestamp;pressure;altitude;pressure_sealevel;temperature;humidity
53550;BME280;73079;52.914;-0.982;2023-12-14T00:01:31;101378.25;;;0.75;100.00
53550;BME280;73079;52.914;-0.982;2023-12-14T00:03:57;101386.41;;;0.85;100.00
53550;BME280;73079;52.914;-0.982;2023-12-14T00:06:23;101383.63;;;0.61;100.00
53550;BME280;73079;52.914;-0.982;2023-12-14T00:08:49;101382.03;;;0.71;100.00
53550;BME280;73079;52.914;-0.982;2023-12-14T00:11:16;101390.19;;;0.68;100.00
53550;BME280;73079;52.914;-0.982;2023-12-14T00:13:42;101385.31;;;0.62;100.00
53550;BME280;73079;52.914;-0.982;2023-12-14T00:16:08;101387.31;;;0.71;100.00
53550;BME280;73079;52.914;-0.982;2023-12-14T00:18:36;101391.69;;;0.72;100.00
53550;BME280;73079;52.914;-0.982;2023-12-14T00:21:02;101388.69;;;0.64;100.00
53550;BME280;73079;52.914;-0.982;2023-12-14T00:23:28;101387.84;;;0.50;100.00
53550;BME280;73079;52.914;-0.982;2023-12-14T00:25:54;101394.53;;;0.29;100.00
53550;BME280;73079;52.914;-0.982;2023-12-14T00:28:20;101397.66;;;0.21;100.00
53550;BME280;73079;52.914;-0.982;2023-12-14T00:30:46;101386.19;;;0.35;100.00
53550;BME280;73079;52.914;-0.982;2023-12-14T00:33:12;101385.41;;;0.20;100.00
53550;BME280;73079;52.914;-0.982;2023-12-14T00:35:40;101394.28;;;0.19;100.00
53550;BME280;73079;52.914;-0.982;2023-12-14T00:38:06;101391.84;;;0.16;100.00
53550;BME280;73079;52.914;-0.982;2023-12-14T00:40:32;101385.91;;;0.12;100.00
53550;BME280;73079;52.914;-0.982;2023-12-14T00:42:58;101377.13;;;0.12;100.00
53550;BME280;73079;52.914;-0.982;2023-12-14T00:45:24;101383.47;;;0.09;100.00
53550;BME280;73079;52.914;-0.982;2023-12-14T00:47:50;101395.94;;;0.07;100.00
53550;BME280;73079;52.914;-0.982;2023-12-14T00:50:16;101386.19;;;0.35;100.00
53550;BME280;73079;52.914;-0.982;2023-12-14T00:52:43;101393.03;;;0.25;100.00
53550;BME280;73079;52.914;-0.982;2023-12-14T00:55:09;101393.25;;;0.22;100.00
53550;BME280;73079;52.914;-0.982;2023-12-14T00:57:35;101397.63;;;0.08;100.00
53550;BME280;73079;52.914;-0.982;2023-12-14T01:00:01;101398.47;;;0.09;100.00
53550;BME280;73079;52.914;-0.982;2023-12-14T01:02:27;101400.38;;;0.07;100.00
53550;BME280;73079;52.914;-0.982;2023-12-14T01:04:53;101396.63;;;0.24;100.00
53550;BME280;73079;52.914;-0.982;2023-12-14T01:07:19;101395.47;;;0.28;100.00
53550;BME280;73079;52.914;-0.982;2023-12-14T01:09:46;101397.03;;;0.17;100.00
53550;BME280;73079;52.914;-0.982;2023-12-14T01:12:12;101394.19;;;0.21;100.00
53550;BME280;73079;52.914;-0.982;2023-12-14T01:14:38;101398.72;;;0.18;100.00
53550;BME280;73079;52.914;-0.982;2023-12-14T01:17:04;101396.81;;;0.21;100.00
53550;BME280;73079;52.914;-0.982;2023-12-14T01:19:30;101402.94;;;0.21;100.00
53550;BME280;73079;52.914;-0.982;2023-12-14T01:21:56;101408.16;;;0.23;100.00
53550;BME280;73079;52.914;-0.982;2023-12-14T01:24:22;101400.38;;;0.34;100.00
53550;BME280;73079;52.914;-0.982;2023-12-14T01:26:49;101405.66;;;0.34;100.00
53550;BME280;73079;52.914;-0.982;2023-12-14T01:29:15;101397.50;;;0.37;100.00
53550;BME280;73079;52.914;-0.982;2023-12-14T01:31:41;101400.97;;;0.25;100.00
53550;BME280;73079;52.914;-0.982;2023-12-14T01:34:07;101403.59;;;0.25;100.00
53550;BME280;73079;52.914;-0.982;2023-12-14T01:36:34;101404.50;;;0.38;100.00
53550;BME280;73079;52.914;-0.982;2023-12-14T01:39:00;101400.47;;;0.32;100.00
53550;BME280;73079;52.914;-0.982;2023-12-14T01:41:31;101398.66;;;0.33;100.00
53550;BME280;73079;52.914;-0.982;2023-12-14T01:43:59;101400.69;;;0.42;100.00
53550;BME280;73079;52.914;-0.982;2023-12-14T01:46:25;101403.22;;;0.31;100.00
53550;BME280;73079;52.914;-0.982;2023-12-14T01:48:50;101409.38;;;0.44;100.00
53550;BME280;73079;52.914;-0.982;2023-12-14T01:51:18;101419.00;;;0.45;100.00
53550;BME280;73079;52.914;-0.982;2023-12-14T01:53:47;101418.91;;;0.47;100.00
53550;BME280;73079;52.914;-0.982;2023-12-14T01:56:13;101416.28;;;0.47;100.00
53550;BME280;73079;52.914;-0.982;2023-12-14T01:58:39;101422.94;;;0.52;100.00
53550;BME280;73079;52.914;-0.982;2023-12-14T02:01:13;101410.38;;;0.56;100.00
53550;BME280;73079;52.914;-0.982;2023-12-14T02:03:44;101415.34;;;0.61;100.00
53550;BME280;73079;52.914;-0.982;2023-12-14T02:06:10;101405.78;;;0.45;100.00
53550;BME280;73079;52.914;-0.982;2023-12-14T02:08:36;101408.72;;;0.41;100.00
53550;BME280;73079;52.914;-0.982;2023-12-14T02:11:02;101412.97;;;0.43;100.00
53550;BME280;73079;52.914;-0.982;2023-12-14T02:13:28;101408.63;;;0.42;100.00
53550;BME280;73079;52.914;-0.982;2023-12-14T02:15:54;101419.06;;;0.31;100.00
53550;BME280;73079;52.914;-0.982;2023-12-14T02:18:24;101415.78;;;0.27;100.00
53550;BME280;73079;52.914;-0.982;2023-12-14T02:20:50;101412.31;;;0.27;100.00
53550;BME280;73079;52.914;-0.982;2023-12-14T02:23:17;101413.22;;;0.53;100.00
53550;BME280;73079;52.914;-0.982;2023-12-14T02:25:43;101421.34;;;0.23;100.00
53550;BME280;73079;52.914;-0.982;2023-12-14T02:28:09;101419.91;;;0.04;100.00
53550;BME280;73079;52.914;-0.982;2023-12-14T02:30:35;101423.84;;;0.11;100.00
53550;BME280;73079;52.914;-0.982;2023-12-14T02:33:01;101415.75;;;0.14;100.00
53550;BME280;73079;52.914;-0.982;2023-12-14T02:38:31;101411.56;;;0.10;100.00
53550;BME280;73079;52.914;-0.982;2023-12-14T02:40:57;101407.50;;;0.19;100.00
53550;BME280;73079;52.914;-0.982;2023-12-14T02:43:23;101422.69;;;0.15;100.00
53550;BME280;73079;52.914;-0.982;2023-12-14T02:45:51;101417.41;;;0.15;100.00
53550;BME280;73079;52.914;-0.982;2023-12-14T02:48:17;101417.63;;;0.40;100.00
53550;BME280;73079;52.914;-0.982;2023-12-14T02:50:43;101417.16;;;0.33;100.00
53550;BME280;73079;52.914;-0.982;2023-12-14T02:53:13;101422.47;;;0.33;100.00
53550;BME280;73079;52.914;-0.982;2023-12-14T02:55:40;101420.75;;;0.32;100.00
53550;BME280;73079;52.914;-0.982;2023-12-14T02:58:06;101423.19;;;0.35;100.00
53550;BME280;73079;52.914;-0.982;2023-12-14T03:00:32;101426.41;;;0.40;100.00
53550;BME280;73079;52.914;-0.982;2023-12-14T03:02:58;101424.09;;;0.48;100.00
53550;BME280;73079;52.914;-0.982;2023-12-14T03:05:24;101424.84;;;0.50;100.00
53550;BME280;73079;52.914;-0.982;2023-12-14T03:07:50;101427.63;;;0.62;100.00
53550;BME280;73079;52.914;-0.982;2023-12-14T03:10:16;101430.41;;;0.73;100.00
53550;BME280;73079;52.914;-0.982;2023-12-14T03:12:45;101424.16;;;0.74;100.00
53550;BME280;73079;52.914;-0.982;2023-12-14T03:15:17;101434.63;;;0.63;100.00
53550;BME280;73079;52.914;-0.982;2023-12-14T03:17:43;101435.91;;;0.70;100.00
53550;BME280;73079;52.914;-0.982;2023-12-14T03:20:10;101433.16;;;0.84;100.00
53550;BME280;73079;52.914;-0.982;2023-12-14T03:22:37;101436.75;;;0.83;100.00
53550;BME280;73079;52.914;-0.982;2023-12-14T03:25:05;101437.19;;;0.90;100.00
53550;BME280;73079;52.914;-0.982;2023-12-14T03:27:31;101420.28;;;0.92;100.00
53550;BME280;73079;52.914;-0.982;2023-12-14T03:29:58;101425.16;;;0.99;100.00
53550;BME280;73079;52.914;-0.982;2023-12-14T03:32:24;101425.59;;;1.18;100.00
53550;BME280;73079;52.914;-0.982;2023-12-14T03:34:50;101430.44;;;1.24;100.00
53550;BME280;73079;52.914;-0.982;2023-12-14T03:37:16;101421.75;;;1.22;100.00
53550;BME280;73079;52.914;-0.982;2023-12-14T03:39:42;101414.56;;;1.24;100.00
53550;BME280;73079;52.914;-0.982;2023-12-14T03:42:08;101418.69;;;1.28;100.00
53550;BME280;73079;52.914;-0.982;2023-12-14T03:44:37;101412.00;;;1.10;100.00
53550;BME280;73079;52.914;-0.982;2023-12-14T03:47:06;101408.53;;;0.97;100.00
53550;BME280;73079;52.914;-0.982;2023-12-14T03:49:36;101411.66;;;0.76;100.00
53550;BME280;73079;52.914;-0.982;2023-12-14T03:52:03;101413.94;;;0.95;100.00
53550;BME280;73079;52.914;-0.982;2023-12-14T03:54:29;101417.53;;;1.32;100.00
53550;BME280;73079;52.914;-0.982;2023-12-14T03:56:55;101423.66;;;1.20;100.00
53550;BME280;73079;52.914;-0.982;2023-12-14T03:59:21;101422.19;;;1.29;100.00
53550;BME280;73079;52.914;-0.982;2023-12-14T04:01:47;101422.31;;;1.02;100.00
53550;BME280;73079;52.914;-0.982;2023-12-14T04:04:14;101420.69;;;0.86;100.00
53550;BME280;73079;52.914;-0.982;2023-12-14T04:06:40;101422.81;;;0.94;100.00
53550;BME280;73079;52.914;-0.982;2023-12-14T04:09:06;101428.97;;;1.07;100.00
53550;BME280;73079;52.914;-0.982;2023-12-14T04:11:32;101423.78;;;1.06;100.00
53550;BME280;73079;52.914;-0.982;2023-12-14T04:13:58;101423.88;;;1.17;100.00
53550;BME280;73079;52.914;-0.982;2023-12-14T04:16:24;101417.31;;;1.10;100.00
53550;BME280;73079;52.914;-0.982;2023-12-14T04:18:50;101417.31;;;1.10;100.00
53550;BME280;73079;52.914;-0.982;2023-12-14T04:21:18;101419.84;;;1.24;100.00
53550;BME280;73079;52.914;-0.982;2023-12-14T04:23:44;101415.53;;;1.23;100.00
53550;BME280;73079;52.914;-0.982;2023-12-14T04:26:11;101417.00;;;1.14;100.00
53550;BME280;73079;52.914;-0.982;2023-12-14T04:28:37;101423.47;;;1.23;100.00
53550;BME280;73079;52.914;-0.982;2023-12-14T04:31:03;101417.72;;;1.29;100.00
53550;BME280;73079;52.914;-0.982;2023-12-14T04:33:29;101420.47;;;1.28;100.00
53550;BME280;73079;52.914;-0.982;2023-12-14T04:35:55;101409.25;;;1.50;100.00
53550;BME280;73079;52.914;-0.982;2023-12-14T04:38:22;101410.81;;;1.52;100.00
53550;BME280;73079;52.914;-0.982;2023-12-14T04:40:48;101419.41;;;1.56;100.00
53550;BME280;73079;52.914;-0.982;2023-12-14T04:43:14;101424.94;;;1.53;100.00
53550;BME280;73079;52.914;-0.982;2023-12-14T04:45:40;101423.88;;;1.43;100.00
53550;BME280;73079;52.914;-0.982;2023-12-14T04:48:06;101428.56;;;1.26;100.00
53550;BME280;73079;52.914;-0.982;2023-12-14T04:50:32;101435.72;;;1.50;100.00
53550;BME280;73079;52.914;-0.982;2023-12-14T04:52:58;101438.31;;;1.39;100.00
53550;BME280;73079;52.914;-0.982;2023-12-14T04:55:25;101444.84;;;1.46;100.00
53550;BME280;73079;52.914;-0.982;2023-12-14T04:57:54;101450.78;;;1.37;100.00
53550;BME280;73079;52.914;-0.982;2023-12-14T05:00:21;101448.56;;;1.30;100.00
53550;BME280;73079;52.914;-0.982;2023-12-14T05:02:47;101441.03;;;1.50;100.00
53550;BME280;73079;52.914;-0.982;2023-12-14T05:05:14;101450.66;;;1.51;100.00
53550;BME280;73079;52.914;-0.982;2023-12-14T05:07:40;101447.59;;;1.44;100.00
53550;BME280;73079;52.914;-0.982;2023-12-14T05:10:07;101455.00;;;1.52;100.00
53550;BME280;73079;52.914;-0.982;2023-12-14T05:12:35;101462.63;;;1.44;100.00
53550;BME280;73079;52.914;-0.982;2023-12-14T05:15:00;101453.31;;;1.64;100.00
53550;BME280;73079;52.914;-0.982;2023-12-14T05:17:26;101462.22;;;1.50;100.00
53550;BME280;73079;52.914;-0.982;2023-12-14T05:19:52;101460.94;;;1.56;100.00
53550;BME280;73079;52.914;-0.982;2023-12-14T05:22:21;101457.56;;;1.54;100.00
53550;BME280;73079;52.914;-0.982;2023-12-14T05:24:47;101452.56;;;1.62;100.00
53550;BME280;73079;52.914;-0.982;2023-12-14T05:27:13;101467.22;;;1.55;100.00
53550;BME280;73079;52.914;-0.982;2023-12-14T05:29:41;101449.19;;;1.47;100.00
53550;BME280;73079;52.914;-0.982;2023-12-14T05:32:07;101443.31;;;1.80;100.00
53550;BME280;73079;52.914;-0.982;2023-12-14T05:34:33;101453.25;;;1.89;100.00
53550;BME280;73079;52.914;-0.982;2023-12-14T05:36:59;101459.53;;;1.76;100.00
53550;BME280;73079;52.914;-0.982;2023-12-14T05:39:24;101466.84;;;1.85;100.00
53550;BME280;73079;52.914;-0.982;2023-12-14T05:41:50;101461.41;;;1.86;100.00
53550;BME280;73079;52.914;-0.982;2023-12-14T05:44:17;101466.28;;;1.93;100.00
53550;BME280;73079;52.914;-0.982;2023-12-14T05:46:44;101466.19;;;1.94;100.00
53550;BME280;73079;52.914;-0.982;2023-12-14T05:49:10;101459.69;;;1.98;100.00
53550;BME280;73079;52.914;-0.982;2023-12-14T05:51:36;101466.91;;;1.96;100.00
53550;BME280;73079;52.914;-0.982;2023-12-14T05:54:03;101462.59;;;1.82;100.00
53550;BME280;73079;52.914;-0.982;2023-12-14T05:56:29;101455.81;;;1.91;100.00
53550;BME280;73079;52.914;-0.982;2023-12-14T05:58:55;101458.13;;;1.83;100.00
53550;BME280;73079;52.914;-0.982;2023-12-14T06:01:23;101463.44;;;1.83;100.00
53550;BME280;73079;52.914;-0.982;2023-12-14T06:03:50;101456.16;;;1.74;100.00
53550;BME280;73079;52.914;-0.982;2023-12-14T06:06:16;101469.59;;;1.70;100.00
53550;BME280;73079;52.914;-0.982;2023-12-14T06:08:42;101467.91;;;1.82;100.00
53550;BME280;73079;52.914;-0.982;2023-12-14T06:11:09;101469.63;;;1.58;100.00
53550;BME280;73079;52.914;-0.982;2023-12-14T06:13:34;101459.97;;;1.69;100.00
53550;BME280;73079;52.914;-0.982;2023-12-14T06:16:01;101456.19;;;1.48;100.00
53550;BME280;73079;52.914;-0.982;2023-12-14T06:18:28;101471.97;;;1.62;100.00
53550;BME280;73079;52.914;-0.982;2023-12-14T06:20:55;101465.59;;;1.52;100.00
53550;BME280;73079;52.914;-0.982;2023-12-14T06:23:22;101474.06;;;1.57;100.00
53550;BME280;73079;52.914;-0.982;2023-12-14T06:25:48;101466.75;;;1.74;100.00
53550;BME280;73079;52.914;-0.982;2023-12-14T06:28:14;101464.31;;;1.70;100.00
53550;BME280;73079;52.914;-0.982;2023-12-14T06:30:40;101463.97;;;1.88;100.00
53550;BME280;73079;52.914;-0.982;2023-12-14T06:33:06;101451.47;;;1.77;100.00
53550;BME280;73079;52.914;-0.982;2023-12-14T06:35:32;101454.09;;;2.03;100.00
53550;BME280;73079;52.914;-0.982;2023-12-14T06:37:59;101461.00;;;1.93;100.00
53550;BME280;73079;52.914;-0.982;2023-12-14T06:40:25;101468.09;;;1.92;100.00
53550;BME280;73079;52.914;-0.982;2023-12-14T06:42:51;101472.06;;;2.11;100.00
53550;BME280;73079;52.914;-0.982;2023-12-14T06:45:17;101477.06;;;2.02;100.00
53550;BME280;73079;52.914;-0.982;2023-12-14T06:47:43;101472.41;;;2.06;100.00
53550;BME280;73079;52.914;-0.982;2023-12-14T06:50:14;101464.84;;;2.13;100.00
53550;BME280;73079;52.914;-0.982;2023-12-14T06:52:40;101457.72;;;1.89;100.00
53550;BME280;73079;52.914;-0.982;2023-12-14T06:55:08;101458.44;;;2.28;100.00
53550;BME280;73079;52.914;-0.982;2023-12-14T06:57:35;101451.00;;;2.33;100.00
53550;BME280;73079;52.914;-0.982;2023-12-14T07:00:00;101457.00;;;2.24;100.00
53550;BME280;73079;52.914;-0.982;2023-12-14T07:02:26;101452.56;;;2.12;100.00
53550;BME280;73079;52.914;-0.982;2023-12-14T07:04:52;101455.66;;;2.05;100.00
53550;BME280;73079;52.914;-0.982;2023-12-14T07:07:18;101458.84;;;2.35;100.00
53550;BME280;73079;52.914;-0.982;2023-12-14T07:09:47;101452.69;;;2.10;100.00
53550;BME280;73079;52.914;-0.982;2023-12-14T07:12:15;101449.97;;;2.23;100.00
53550;BME280;73079;52.914;-0.982;2023-12-14T07:14:41;101448.72;;;2.16;100.00
53550;BME280;73079;52.914;-0.982;2023-12-14T07:17:07;101452.94;;;2.31;100.00
53550;BME280;73079;52.914;-0.982;2023-12-14T07:19:33;101453.56;;;2.35;100.00
53550;BME280;73079;52.914;-0.982;2023-12-14T07:21:59;101442.53;;;2.28;100.00
53550;BME280;73079;52.914;-0.982;2023-12-14T07:24:25;101450.75;;;2.36;100.00
53550;BME280;73079;52.914;-0.982;2023-12-14T07:26:51;101463.81;;;2.39;100.00
53550;BME280;73079;52.914;-0.982;2023-12-14T07:29:19;101464.16;;;2.35;100.00
53550;BME280;73079;52.914;-0.982;2023-12-14T07:31:45;101458.28;;;2.42;100.00
53550;BME280;73079;52.914;-0.982;2023-12-14T07:34:11;101454.38;;;2.35;100.00
53550;BME280;73079;52.914;-0.982;2023-12-14T07:36:37;101462.66;;;2.31;100.00
53550;BME280;73079;52.914;-0.982;2023-12-14T07:39:03;101467.97;;;2.31;100.00
53550;BME280;73079;52.914;-0.982;2023-12-14T07:41:30;101462.13;;;2.38;100.00
53550;BME280;73079;52.914;-0.982;2023-12-14T07:43:58;101467.59;;;2.48;100.00
53550;BME280;73079;52.914;-0.982;2023-12-14T07:46:25;101475.13;;;2.41;100.00
53550;BME280;73079;52.914;-0.982;2023-12-14T07:48:51;101465.41;;;2.42;100.00
53550;BME280;73079;52.914;-0.982;2023-12-14T07:51:17;101469.19;;;2.51;100.00
53550;BME280;73079;52.914;-0.982;2023-12-14T07:53:44;101472.56;;;2.53;100.00
53550;BME280;73079;52.914;-0.982;2023-12-14T07:56:12;101469.97;;;2.64;100.00
53550;BME280;73079;52.914;-0.982;2023-12-14T07:58:38;101475.25;;;2.64;100.00
53550;BME280;73079;52.914;-0.982;2023-12-14T08:01:04;101469.72;;;2.43;100.00
53550;BME280;73079;52.914;-0.982;2023-12-14T08:03:31;101482.78;;;2.46;100.00
53550;BME280;73079;52.914;-0.982;2023-12-14T08:05:57;101478.13;;;2.61;100.00
53550;BME280;73079;52.914;-0.982;2023-12-14T08:08:23;101478.81;;;2.76;100.00
53550;BME280;73079;52.914;-0.982;2023-12-14T08:10:50;101478.91;;;2.63;100.00
53550;BME280;73079;52.914;-0.982;2023-12-14T08:13:16;101483.50;;;2.72;100.00
53550;BME280;73079;52.914;-0.982;2023-12-14T08:15:42;101475.28;;;2.75;100.00
53550;BME280;73079;52.914;-0.982;2023-12-14T08:18:09;101482.53;;;2.73;100.00
53550;BME280;73079;52.914;-0.982;2023-12-14T08:20:38;101483.31;;;2.87;100.00
53550;BME280;73079;52.914;-0.982;2023-12-14T08:23:05;101468.34;;;2.85;100.00
53550;BME280;73079;52.914;-0.982;2023-12-14T08:25:31;101472.16;;;2.70;100.00
53550;BME280;73079;52.914;-0.982;2023-12-14T08:27:57;101473.66;;;2.85;100.00
53550;BME280;73079;52.914;-0.982;2023-12-14T08:30:23;101474.66;;;2.96;100.00
53550;BME280;73079;52.914;-0.982;2023-12-14T08:32:49;101479.25;;;2.94;100.00
53550;BME280;73079;52.914;-0.982;2023-12-14T08:35:15;101468.34;;;2.85;100.00
53550;BME280;73079;52.914;-0.982;2023-12-14T08:37:42;101481.19;;;3.03;100.00
53550;BME280;73079;52.914;-0.982;2023-12-14T08:40:10;101479.75;;;2.99;100.00
53550;BME280;73079;52.914;-0.982;2023-12-14T08:42:36;101491.13;;;3.12;100.00
53550;BME280;73079;52.914;-0.982;2023-12-14T08:45:42;101487.50;;;3.13;100.00
53550;BME280;73079;52.914;-0.982;2023-12-14T08:48:25;101493.34;;;3.30;100.00
53550;BME280;73079;52.914;-0.982;2023-12-14T08:50:53;101497.19;;;3.26;100.00
53550;BME280;73079;52.914;-0.982;2023-12-14T08:53:22;101497.53;;;3.21;100.00
53550;BME280;73079;52.914;-0.982;2023-12-14T08:55:51;101498.75;;;3.28;100.00
53550;BME280;73079;52.914;-0.982;2023-12-14T08:58:17;101505.13;;;3.14;100.00
53550;BME280;73079;52.914;-0.982;2023-12-14T09:00:42;101492.72;;;3.37;100.00
53550;BME280;73079;52.914;-0.982;2023-12-14T09:03:11;101485.63;;;3.38;100.00
53550;BME280;73079;52.914;-0.982;2023-12-14T09:05:37;101478.50;;;3.38;100.00
53550;BME280;73079;52.914;-0.982;2023-12-14T09:08:07;101488.75;;;3.32;100.00
53550;BME280;73079;52.914;-0.982;2023-12-14T09:10:35;101495.16;;;3.40;100.00
53550;BME280;73079;52.914;-0.982;2023-12-14T09:13:00;101492.38;;;3.42;100.00
53550;BME280;73079;52.914;-0.982;2023-12-14T09:15:30;101495.81;;;3.55;100.00
53550;BME280;73079;52.914;-0.982;2023-12-14T09:17:56;101501.19;;;3.31;100.00
53550;BME280;73079;52.914;-0.982;2023-12-14T09:20:21;101501.06;;;3.33;100.00
53550;BME280;73079;52.914;-0.982;2023-12-14T09:22:47;101496.25;;;3.49;100.00
53550;BME280;73079;52.914;-0.982;2023-12-14T09:25:13;101499.75;;;3.50;100.00
53550;BME280;73079;52.914;-0.982;2023-12-14T09:27:41;101495.56;;;3.70;100.00
53550;BME280;73079;52.914;-0.982;2023-12-14T09:30:08;101495.31;;;3.73;100.00
53550;BME280;73079;52.914;-0.982;2023-12-14T09:32:35;101503.28;;;3.73;100.00
53550;BME280;73079;52.914;-0.982;2023-12-14T09:35:01;101504.75;;;3.77;100.00
53550;BME280;73079;52.914;-0.982;2023-12-14T09:37:27;101506.91;;;3.83;100.00
53550;BME280;73079;52.914;-0.982;2023-12-14T09:39:53;101513.94;;;3.84;100.00
53550;BME280;73079;52.914;-0.982;2023-12-14T09:42:21;101513.22;;;3.93;100.00
53550;BME280;73079;52.914;-0.982;2023-12-14T09:44:50;101515.38;;;3.88;100.00
53550;BME280;73079;52.914;-0.982;2023-12-14T09:47:17;101521.88;;;3.73;100.00
53550;BME280;73079;52.914;-0.982;2023-12-14T09:49:43;101534.59;;;4.03;100.00
53550;BME280;73079;52.914;-0.982;2023-12-14T09:52:11;101541.13;;;3.99;100.00
53550;BME280;73079;52.914;-0.982;2023-12-14T09:54:37;101541.72;;;4.03;100.00
53550;BME280;73079;52.914;-0.982;2023-12-14T09:57:03;101541.47;;;3.83;100.00
53550;BME280;73079;52.914;-0.982;2023-12-14T09:59:29;101536.41;;;3.91;100.00
53550;BME280;73079;52.914;-0.982;2023-12-14T10:02:08;101537.38;;;4.02;100.00
53550;BME280;73079;52.914;-0.982;2023-12-14T10:04:35;101544.63;;;3.99;100.00
53550;BME280;73079;52.914;-0.982;2023-12-14T10:07:01;101540.28;;;4.10;100.00
53550;BME280;73079;52.914;-0.982;2023-12-14T10:09:32;101534.94;;;4.32;100.00
53550;BME280;73079;52.914;-0.982;2023-12-14T10:12:02;101549.19;;;4.43;100.00
53550;BME280;73079;52.914;-0.982;2023-12-14T10:14:29;101545.19;;;4.48;100.00
53550;BME280;73079;52.914;-0.982;2023-12-14T10:16:55;101553.06;;;4.50;100.00
53550;BME280;73079;52.914;-0.982;2023-12-14T10:19:23;101558.03;;;4.43;100.00
53550;BME280;73079;52.914;-0.982;2023-12-14T10:21:51;101553.25;;;4.69;100.00
53550;BME280;73079;52.914;-0.982;2023-12-14T10:24:18;101552.25;;;4.82;100.00
53550;BME280;73079;52.914;-0.982;2023-12-14T10:26:46;101554.53;;;4.86;100.00
53550;BME280;73079;52.914;-0.982;2023-12-14T10:29:12;101559.25;;;5.15;100.00
53550;BME280;73079;52.914;-0.982;2023-12-14T10:31:38;101561.31;;;5.11;100.00
53550;BME280;73079;52.914;-0.982;2023-12-14T10:34:04;101567.63;;;4.78;100.00
53550;BME280;73079;52.914;-0.982;2023-12-14T10:36:32;101566.22;;;4.95;100.00
53550;BME280;73079;52.914;-0.982;2023-12-14T10:38:59;101568.41;;;5.01;100.00
53550;BME280;73079;52.914;-0.982;2023-12-14T10:41:26;101570.31;;;5.10;100.00
53550;BME280;73079;52.914;-0.982;2023-12-14T10:43:56;101566.31;;;5.58;100.00
53550;BME280;73079;52.914;-0.982;2023-12-14T10:46:23;101570.53;;;5.61;100.00
53550;BME280;73079;52.914;-0.982;2023-12-14T10:48:50;101573.19;;;5.82;100.00
53550;BME280;73079;52.914;-0.982;2023-12-14T10:51:18;101570.84;;;5.67;100.00
53550;BME280;73079;52.914;-0.982;2023-12-14T10:53:47;101559.81;;;5.72;100.00
53550;BME280;73079;52.914;-0.982;2023-12-14T10:56:14;101570.13;;;5.86;100.00
53550;BME280;73079;52.914;-0.982;2023-12-14T10:58:51;101561.56;;;5.93;100.00
53550;BME280;73079;52.914;-0.982;2023-12-14T11:01:21;101567.38;;;5.77;100.00
53550;BME280;73079;52.914;-0.982;2023-12-14T11:03:50;101577.28;;;5.65;100.00
53550;BME280;73079;52.914;-0.982;2023-12-14T11:06:30;101583.25;;;5.78;100.00
53550;BME280;73079;52.914;-0.982;2023-12-14T11:08:59;101577.84;;;5.89;100.00
53550;BME280;73079;52.914;-0.982;2023-12-14T11:11:29;101584.56;;;6.05;100.00
53550;BME280;73079;52.914;-0.982;2023-12-14T11:13:55;101578.63;;;5.80;100.00
53550;BME280;73079;52.914;-0.982;2023-12-14T11:16:22;101582.44;;;5.78;100.00
53550;BME280;73079;52.914;-0.982;2023-12-14T11:19:24;101569.69;;;5.81;100.00
53550;BME280;73079;52.914;-0.982;2023-12-14T11:22:11;101567.00;;;5.81;100.00
53550;BME280;73079;52.914;-0.982;2023-12-14T11:24:51;101566.44;;;5.78;100.00
53550;BME280;73079;52.914;-0.982;2023-12-14T11:27:25;101577.94;;;5.78;100.00
53550;BME280;73079;52.914;-0.982;2023-12-14T11:29:53;101568.69;;;5.82;100.00
53550;BME280;73079;52.914;-0.982;2023-12-14T11:32:19;101572.50;;;5.89;100.00
53550;BME280;73079;52.914;-0.982;2023-12-14T11:34:46;101566.72;;;5.84;100.00
53550;BME280;73079;52.914;-0.982;2023-12-14T11:37:12;101568.50;;;5.95;100.00
53550;BME280;73079;52.914;-0.982;2023-12-14T11:39:38;101573.81;;;5.95;100.00
53550;BME280;73079;52.914;-0.982;2023-12-14T11:42:09;101569.59;;;5.93;100.00
53550;BME280;73079;52.914;-0.982;2023-12-14T11:44:37;101574.22;;;5.90;100.00
53550;BME280;73079;52.914;-0.982;2023-12-14T11:47:03;101566.22;;;5.90;100.00
53550;BME280;73079;52.914;-0.982;2023-12-14T11:49:29;101562.09;;;6.07;100.00
53550;BME280;73079;52.914;-0.982;2023-12-14T11:51:56;101561.50;;;6.04;100.00
53550;BME280;73079;52.914;-0.982;2023-12-14T11:54:22;101551.13;;;6.01;100.00
53550;BME280;73079;52.914;-0.982;2023-12-14T11:56:49;101559.13;;;6.01;100.00
53550;BME280;73079;52.914;-0.982;2023-12-14T11:59:18;101551.63;;;5.95;100.00
53550;BME280;73079;52.914;-0.982;2023-12-14T12:01:55;101558.69;;;5.96;100.00
53550;BME280;73079;52.914;-0.982;2023-12-14T12:04:22;101564.34;;;6.02;100.00
53550;BME280;73079;52.914;-0.982;2023-12-14T12:06:48;101567.00;;;6.02;100.00
53550;BME280;73079;52.914;-0.982;2023-12-14T12:09:32;101567.75;;;6.14;100.00
53550;BME280;73079;52.914;-0.982;2023-12-14T12:11:58;101566.50;;;6.18;100.00
53550;BME280;73079;52.914;-0.982;2023-12-14T12:14:25;101575.66;;;6.25;100.00
53550;BME280;73079;52.914;-0.982;2023-12-14T12:16:53;101573.41;;;6.31;100.00
53550;BME280;73079;52.914;-0.982;2023-12-14T12:19:19;101578.34;;;6.35;100.00
53550;BME280;73079;52.914;-0.982;2023-12-14T12:21:45;101591.19;;;6.41;100.00
53550;BME280;73079;52.914;-0.982;2023-12-14T12:24:11;101588.66;;;6.40;100.00
53550;BME280;73079;52.914;-0.982;2023-12-14T12:26:37;101590.50;;;6.49;100.00
53550;BME280;73079;52.914;-0.982;2023-12-14T12:29:03;101598.06;;;6.54;100.00
53550;BME280;73079;52.914;-0.982;2023-12-14T12:31:33;101580.00;;;6.67;100.00
53550;BME280;73079;52.914;-0.982;2023-12-14T12:34:00;101572.69;;;6.69;100.00
53550;BME280;73079;52.914;-0.982;2023-12-14T12:36:26;101574.09;;;6.73;100.00
53550;BME280;73079;52.914;-0.982;2023-12-14T12:38:52;101572.72;;;6.79;100.00
53550;BME280;73079;52.914;-0.982;2023-12-14T12:41:18;101574.84;;;6.95;100.00
53550;BME280;73079;52.914;-0.982;2023-12-14T12:43:44;101581.59;;;6.99;100.00